Time;durP1;ratioP1;P1;durP2;ratioP2;P2;SDS_P1;SDS_P2;PMS_P1;PMS_P2;Temp;Humidity;BMP_temperature;BMP_pressure;BME280_temperature;BME280_humidity;BME280_pressure;Samples;Min_cycle;Max_cycle;Signal;HPM_P1;HPM_P2
2021/09/30 00:02:10;;;;;;;2.25;2.05;;;13.90;99.90;;;;;;5012363;28;20805;-63
2021/09/30 00:04:37;;;;;;;2.78;2.58;;;13.90;99.90;;;;;;5010640;28;20222;-63
2021/09/30 00:07:07;;;;;;;6.65;2.90;;;13.90;99.90;;;;;;5010759;28;20229;-63
2021/09/30 00:09:34;;;;;;;8.73;6.22;;;13.80;99.90;;;;;;5011314;28;20221;-63
2021/09/30 00:12:08;;;;;;;10.17;7.50;;;13.80;99.90;;;;;;5012396;28;20230;-63
2021/09/30 00:14:44;;;;;;;10.10;6.70;;;13.80;99.90;;;;;;5012484;28;20465;-63
2021/09/30 00:17:30;;;;;;;6.22;5.15;;;13.70;99.90;;;;;;5012475;28;21104;-63
2021/09/30 00:33:50;;;;;;;4.07;1.67;;;13.60;99.90;;;;;;5016633;28;20495;-63
2021/09/30 00:41:47;;;;;;;3.00;2.60;;;13.50;99.90;;;;;;5015992;28;20474;-63
2021/09/30 00:47:05;;;;;;;1.42;1.33;;;13.40;99.90;;;;;;5015869;28;20307;-63
2021/09/30 00:49:41;;;;;;;4.75;2.97;;;13.30;99.90;;;;;;5016415;28;20229;-63
2021/09/30 00:52:14;;;;;;;2.30;2.10;;;13.30;99.90;;;;;;5015959;28;20571;-63
2021/09/30 00:55:05;;;;;;;4.50;1.10;;;13.30;99.90;;;;;;5016106;28;20240;-63
2021/09/30 02:19:17;;;;;;;2.33;1.38;;;12.60;99.90;;;;;;5014484;28;20286;-63
2021/09/30 02:25:04;;;;;;;2.55;1.60;;;12.60;99.90;;;;;;5013879;28;20217;-64
2021/09/30 02:58:32;;;;;;;1.90;1.70;;;12.50;99.90;;;;;;5012102;28;20304;-64
2021/09/30 03:01:03;;;;;;;2.20;1.40;;;12.50;99.90;;;;;;5004750;28;20238;-64
2021/09/30 03:03:33;;;;;;;2.67;1.80;;;12.50;99.90;;;;;;5013234;28;20319;-64
2021/09/30 03:06:00;;;;;;;3.33;2.60;;;12.60;99.90;;;;;;5013728;28;20235;-64
2021/09/30 03:08:31;;;;;;;2.30;2.10;;;12.60;99.90;;;;;;5013211;28;20238;-64
2021/09/30 03:11:02;;;;;;;4.03;2.60;;;12.50;99.90;;;;;;5013634;28;20223;-64
2021/09/30 03:13:31;;;;;;;2.60;2.40;;;12.50;99.90;;;;;;5012999;28;20307;-64
2021/09/30 03:16:04;;;;;;;2.45;1.55;;;12.60;99.90;;;;;;5013538;28;20822;-63
2021/09/30 03:18:48;;;;;;;1.63;1.52;;;12.60;99.90;;;;;;5011556;28;20285;-64
2021/09/30 03:24:02;;;;;;;4.28;2.35;;;12.60;99.90;;;;;;5013438;28;20231;-64
2021/09/30 03:26:30;;;;;;;1.90;1.80;;;12.60;99.90;;;;;;5012817;28;20245;-63
2021/09/30 03:28:57;;;;;;;2.53;1.77;;;12.60;99.90;;;;;;5002596;28;20584;-64
2021/09/30 03:31:25;;;;;;;3.40;1.98;;;12.70;99.90;;;;;;5010164;28;20671;-64
2021/09/30 03:33:52;;;;;;;3.17;1.65;;;12.60;99.90;;;;;;5013065;28;20218;-64
2021/09/30 03:36:19;;;;;;;2.13;1.58;;;12.60;99.90;;;;;;5012816;28;20234;-64
2021/09/30 03:38:46;;;;;;;3.25;1.75;;;12.60;99.90;;;;;;5013131;28;20240;-64
2021/09/30 03:41:14;;;;;;;3.83;1.75;;;12.50;99.90;;;;;;5012528;28;20266;-64
2021/09/30 03:43:41;;;;;;;2.53;1.50;;;12.50;99.90;;;;;;5013015;28;20233;-64
2021/09/30 03:46:08;;;;;;;2.10;1.45;;;12.50;99.90;;;;;;5013042;28;20316;-64
2021/09/30 03:48:35;;;;;;;2.85;1.75;;;12.40;99.90;;;;;;5012685;28;21344;-64
2021/09/30 03:51:10;;;;;;;2.83;1.80;;;12.40;99.90;;;;;;5012947;28;20233;-64
2021/09/30 03:53:50;;;;;;;3.35;1.80;;;12.40;99.90;;;;;;5012552;28;20223;-64
2021/09/30 03:56:36;;;;;;;3.10;1.70;;;12.40;99.90;;;;;;5012219;28;20241;-64
2021/09/30 04:01:55;;;;;;;2.55;1.90;;;12.40;99.90;;;;;;4994475;28;20232;-64
2021/09/30 04:04:25;;;;;;;2.08;1.30;;;12.40;99.90;;;;;;5012539;28;20237;-64
2021/09/30 04:06:52;;;;;;;3.05;1.50;;;12.50;99.90;;;;;;5012727;28;20222;-64
2021/09/30 04:09:23;;;;;;;1.63;1.52;;;12.50;99.90;;;;;;5012181;28;20618;-64
2021/09/30 04:11:51;;;;;;;1.83;1.73;;;12.50;99.90;;;;;;5012650;28;20222;-64
2021/09/30 04:14:18;;;;;;;2.33;1.85;;;12.60;99.90;;;;;;5012320;28;20237;-64
2021/09/30 04:16:47;;;;;;;2.53;1.60;;;12.50;99.90;;;;;;5012706;28;20248;-64
2021/09/30 04:19:15;;;;;;;3.05;2.20;;;12.60;99.90;;;;;;5012225;28;20237;-64
2021/09/30 04:21:43;;;;;;;2.17;1.95;;;12.60;99.90;;;;;;5012713;28;20240;-64
2021/09/30 04:24:09;;;;;;;8.80;5.60;;;12.60;99.90;;;;;;5012295;28;20635;-64
2021/09/30 04:26:36;;;;;;;2.90;2.05;;;12.60;99.90;;;;;;5012695;28;20239;-64
2021/09/30 04:29:05;;;;;;;4.90;2.80;;;12.60;99.90;;;;;;5012047;28;20694;-64
2021/09/30 04:31:32;;;;;;;2.05;1.70;;;12.70;99.90;;;;;;5012589;28;20223;-64
2021/09/30 04:33:59;;;;;;;2.35;1.60;;;12.70;99.90;;;;;;5010104;28;20228;-64
2021/09/30 04:36:25;;;;;;;4.10;2.05;;;12.70;99.90;;;;;;5012341;28;20965;-64
2021/09/30 04:38:52;;;;;;;2.95;2.53;;;12.80;99.90;;;;;;5012345;28;20250;-63
2021/09/30 04:41:20;;;;;;;10.00;7.40;;;12.80;99.90;;;;;;5012054;28;20572;-64
2021/09/30 04:43:47;;;;;;;5.30;4.80;;;12.80;99.90;;;;;;5012386;28;20232;-64
2021/09/30 04:46:17;;;;;;;2.67;2.00;;;12.80;99.90;;;;;;5011956;28;20309;-64
2021/09/30 04:48:44;;;;;;;2.75;1.60;;;12.80;99.90;;;;;;5012229;28;20336;-64
2021/09/30 04:51:11;;;;;;;3.55;1.58;;;12.80;99.90;;;;;;5012153;28;20235;-64
2021/09/30 04:53:38;;;;;;;3.50;1.70;;;12.80;99.90;;;;;;5012119;28;20227;-64
2021/09/30 04:56:06;;;;;;;3.10;2.03;;;12.80;99.90;;;;;;5011935;28;20240;-64
2021/09/30 04:58:33;;;;;;;1.90;1.70;;;12.90;99.90;;;;;;4995417;28;20229;-64
2021/09/30 05:01:00;;;;;;;2.60;1.48;;;12.80;99.90;;;;;;5003130;28;20234;-64
2021/09/30 05:03:28;;;;;;;3.30;1.75;;;12.80;99.90;;;;;;5011806;28;20224;-64
2021/09/30 05:05:55;;;;;;;3.92;1.90;;;12.80;99.90;;;;;;5012190;28;20238;-64
2021/09/30 05:08:22;;;;;;;1.63;1.40;;;12.90;99.90;;;;;;5014838;28;20244;-64
2021/09/30 05:10:50;;;;;;;1.92;1.70;;;12.90;99.90;;;;;;5016022;28;20233;-64
2021/09/30 05:13:20;;;;;;;2.15;1.42;;;12.90;99.90;;;;;;5015182;28;20224;-64
2021/09/30 05:15:47;;;;;;;3.38;2.25;;;12.90;99.90;;;;;;5015634;28;20279;-64
2021/09/30 05:18:14;;;;;;;3.80;2.30;;;12.90;99.90;;;;;;5015135;28;20230;-64
2021/09/30 05:20:42;;;;;;;3.15;1.27;;;12.90;99.90;;;;;;5015580;28;20238;-64
2021/09/30 05:23:09;;;;;;;3.20;1.60;;;12.90;99.90;;;;;;5015004;28;20246;-64
2021/09/30 05:25:36;;;;;;;3.72;2.55;;;12.90;99.90;;;;;;5015538;28;20771;-64
2021/09/30 05:28:03;;;;;;;2.85;1.85;;;13.00;99.90;;;;;;5015217;28;20231;-63
2021/09/30 05:30:31;;;;;;;2.33;1.73;;;13.00;99.90;;;;;;5015084;28;20243;-64
2021/09/30 05:32:58;;;;;;;5.20;1.83;;;13.10;99.90;;;;;;5015401;28;20549;-64
2021/09/30 05:35:25;;;;;;;1.90;1.73;;;13.10;99.90;;;;;;5011737;28;20221;-64
2021/09/30 05:37:53;;;;;;;5.68;1.98;;;13.20;99.90;;;;;;5015162;28;20689;-64
2021/09/30 05:40:24;;;;;;;1.70;1.60;;;13.20;99.90;;;;;;5014876;28;20237;-64
2021/09/30 05:42:53;;;;;;;3.45;1.60;;;13.20;99.90;;;;;;5014871;28;20624;-64
2021/09/30 05:45:19;;;;;;;2.22;1.83;;;13.20;99.90;;;;;;5014755;28;20607;-64
2021/09/30 05:47:47;;;;;;;5.60;3.45;;;13.20;99.90;;;;;;5002236;28;20228;-64
2021/09/30 05:50:15;;;;;;;4.00;1.30;;;13.30;99.90;;;;;;5014484;28;20731;-64
2021/09/30 05:52:43;;;;;;;4.95;2.10;;;13.30;99.90;;;;;;5015090;28;20221;-64
2021/09/30 05:55:12;;;;;;;7.72;2.60;;;13.30;99.90;;;;;;5011499;28;20228;-64
2021/09/30 05:57:39;;;;;;;5.35;2.17;;;13.40;99.90;;;;;;5014840;28;20239;-64
2021/09/30 06:00:14;;;;;;;4.90;2.00;;;13.40;99.90;;;;;;5011168;28;20231;-64
2021/09/30 06:11:19;;;;;;;10.57;5.40;;;13.50;99.90;;;;;;5014075;28;20214;-64
2021/09/30 06:13:51;;;;;;;5.47;4.75;;;13.50;99.90;;;;;;5014745;28;20316;-64
2021/09/30 06:16:21;;;;;;;6.95;4.25;;;13.50;99.90;;;;;;5014210;28;20254;-64
2021/09/30 06:18:48;;;;;;;4.75;3.38;;;13.40;99.90;;;;;;5014310;28;20240;-64
2021/09/30 06:21:15;;;;;;;4.55;3.78;;;13.40;99.90;;;;;;5014079;28;20235;-64
2021/09/30 06:23:42;;;;;;;3.55;2.50;;;13.50;99.90;;;;;;5014525;28;20233;-64
2021/09/30 06:26:10;;;;;;;10.20;7.22;;;13.50;99.90;;;;;;5013756;28;20233;-64
2021/09/30 06:28:38;;;;;;;9.02;7.45;;;13.50;99.90;;;;;;5014358;28;20233;-64
2021/09/30 06:31:06;;;;;;;5.90;4.25;;;13.50;99.90;;;;;;5013762;28;20232;-64
2021/09/30 06:33:33;;;;;;;9.73;6.85;;;13.50;99.90;;;;;;5014059;28;20221;-64
2021/09/30 06:36:00;;;;;;;6.10;3.63;;;13.50;99.90;;;;;;5013671;28;20237;-64
2021/09/30 06:38:27;;;;;;;2.20;1.60;;;13.60;99.90;;;;;;5013921;28;20226;-64
2021/09/30 06:40:54;;;;;;;5.15;2.08;;;13.60;99.90;;;;;;5014001;28;20226;-64
2021/09/30 06:43:20;;;;;;;3.05;1.83;;;13.70;99.90;;;;;;5013580;28;20230;-64
2021/09/30 06:45:51;;;;;;;3.47;1.55;;;13.70;99.90;;;;;;5013927;28;20233;-64
2021/09/30 06:48:18;;;;;;;4.25;1.67;;;13.70;99.90;;;;;;5013548;28;20252;-64
2021/09/30 06:50:46;;;;;;;2.50;1.67;;;13.70;99.90;;;;;;5013967;28;20577;-64
2021/09/30 06:53:13;;;;;;;3.38;1.63;;;13.70;99.90;;;;;;5013228;28;20217;-64
2021/09/30 06:55:42;;;;;;;7.80;1.35;;;13.70;99.90;;;;;;5013736;28;20226;-64
2021/09/30 06:58:10;;;;;;;2.28;1.33;;;13.70;99.90;;;;;;5013228;28;20229;-64
2021/09/30 07:00:37;;;;;;;4.15;1.30;;;13.70;99.90;;;;;;5013558;28;20322;-64
2021/09/30 07:03:05;;;;;;;2.72;1.40;;;13.70;99.90;;;;;;4999964;28;20249;-64
2021/09/30 07:05:33;;;;;;;2.90;1.60;;;13.70;99.90;;;;;;5013907;28;20228;-64
2021/09/30 07:08:01;;;;;;;2.00;1.45;;;13.70;99.90;;;;;;5013653;28;20499;-64
2021/09/30 07:10:28;;;;;;;2.45;1.67;;;13.80;99.90;;;;;;5013130;28;20240;-63
2021/09/30 07:12:54;;;;;;;2.87;1.70;;;13.80;99.90;;;;;;5013238;28;20234;-64
2021/09/30 07:15:22;;;;;;;2.30;1.40;;;13.80;99.90;;;;;;5013168;28;20477;-64
2021/09/30 07:17:49;;;;;;;2.42;1.80;;;13.80;99.90;;;;;;5013458;28;20479;-64
2021/09/30 07:20:18;;;;;;;1.87;1.33;;;13.90;99.90;;;;;;5012914;28;20234;-64
2021/09/30 07:22:44;;;;;;;4.50;1.60;;;13.90;99.90;;;;;;5013105;28;20487;-64
2021/09/30 07:25:12;;;;;;;4.25;1.58;;;13.90;99.90;;;;;;5012930;28;20567;-64
2021/09/30 07:27:39;;;;;;;3.15;1.70;;;13.90;99.90;;;;;;5013169;28;20226;-64
2021/09/30 07:30:07;;;;;;;2.58;1.65;;;13.90;99.90;;;;;;5012333;28;20229;-64
2021/09/30 07:32:34;;;;;;;2.83;1.50;;;13.80;99.90;;;;;;5013185;28;20563;-64
2021/09/30 07:35:00;;;;;;;6.35;2.20;;;13.90;99.90;;;;;;5000863;28;20226;-64
2021/09/30 07:37:29;;;;;;;3.67;1.95;;;13.90;99.90;;;;;;5012147;28;20244;-64
2021/09/30 07:39:55;;;;;;;6.15;2.20;;;13.90;99.90;;;;;;5013075;28;20244;-64
2021/09/30 07:42:24;;;;;;;6.97;2.10;;;13.90;99.90;;;;;;5012415;28;20226;-64
2021/09/30 07:44:51;;;;;;;3.65;1.90;;;13.90;99.90;;;;;;5012916;28;20291;-64
2021/09/30 07:47:17;;;;;;;3.72;1.90;;;14.00;99.90;;;;;;5012721;28;20230;-64
2021/09/30 07:49:44;;;;;;;5.50;2.05;;;14.00;99.90;;;;;;5012893;28;20240;-64
2021/09/30 07:52:11;;;;;;;3.77;1.70;;;14.00;99.90;;;;;;5012633;28;20234;-64
2021/09/30 07:54:39;;;;;;;7.20;2.00;;;14.10;99.90;;;;;;5012774;28;20478;-64
2021/09/30 07:57:06;;;;;;;2.42;2.10;;;14.10;99.90;;;;;;5012379;28;20579;-64
2021/09/30 07:59:33;;;;;;;3.22;2.10;;;14.20;99.90;;;;;;5012422;28;20280;-63
2021/09/30 08:02:00;;;;;;;4.00;2.00;;;14.30;99.90;;;;;;5012771;28;20239;-64
2021/09/30 08:04:27;;;;;;;5.40;2.10;;;14.30;99.90;;;;;;5012214;28;20237;-64
2021/09/30 08:06:54;;;;;;;6.82;2.17;;;14.20;99.90;;;;;;5012824;28;20465;-64
2021/09/30 08:09:21;;;;;;;7.40;3.05;;;14.20;99.90;;;;;;5012377;28;20240;-63
2021/09/30 08:11:49;;;;;;;3.70;2.30;;;14.30;99.90;;;;;;5012759;28;20700;-64
2021/09/30 08:14:16;;;;;;;5.27;2.67;;;14.30;99.90;;;;;;5012196;28;20856;-64
2021/09/30 08:16:43;;;;;;;5.20;1.70;;;14.30;99.90;;;;;;5012841;28;20472;-64
2021/09/30 08:19:09;;;;;;;3.80;1.98;;;14.40;99.90;;;;;;5012218;28;20477;-64
2021/09/30 08:21:44;;;;;;;1.53;1.40;;;14.40;99.90;;;;;;5012827;28;20275;-64
2021/09/30 08:24:11;;;;;;;2.93;1.50;;;14.40;99.90;;;;;;5012090;28;20477;-64
2021/09/30 08:26:37;;;;;;;2.63;2.00;;;14.50;99.90;;;;;;5012667;28;20480;-64
2021/09/30 08:29:06;;;;;;;6.83;2.20;;;14.50;99.90;;;;;;5012349;28;20476;-64
2021/09/30 08:31:33;;;;;;;2.90;1.87;;;14.50;99.90;;;;;;5012234;28;20958;-64
2021/09/30 08:34:01;;;;;;;3.20;1.60;;;14.60;99.90;;;;;;5008209;28;20481;-64
2021/09/30 08:36:29;;;;;;;4.70;2.10;;;14.60;99.90;;;;;;5003371;28;20473;-64
2021/09/30 08:38:56;;;;;;;3.20;2.10;;;14.60;99.90;;;;;;5012509;28;20476;-64
2021/09/30 08:41:23;;;;;;;2.90;2.27;;;14.70;99.90;;;;;;5012155;28;20483;-64
2021/09/30 08:43:51;;;;;;;2.03;1.83;;;14.80;99.90;;;;;;5016054;28;20483;-64
2021/09/30 08:46:20;;;;;;;4.20;2.20;;;14.90;99.90;;;;;;5015692;28;20787;-64
2021/09/30 08:48:47;;;;;;;3.90;2.30;;;14.90;99.90;;;;;;5015986;28;20475;-64
2021/09/30 08:51:17;;;;;;;2.23;2.03;;;15.00;99.90;;;;;;5015510;28;20963;-64
2021/09/30 08:53:44;;;;;;;7.93;2.20;;;15.10;99.90;;;;;;5015716;28;20808;-64
2021/09/30 08:56:12;;;;;;;2.33;2.00;;;15.20;99.90;;;;;;5015788;28;20511;-64
2021/09/30 08:58:40;;;;;;;2.70;2.40;;;15.30;99.90;;;;;;5015927;28;20479;-64
2021/09/30 09:01:08;;;;;;;4.33;1.80;;;15.30;99.90;;;;;;5016255;28;20473;-64
2021/09/30 09:03:39;;;;;;;5.00;1.70;;;15.40;99.90;;;;;;5015815;28;20452;-64
2021/09/30 09:06:08;;;;;;;2.00;1.70;;;15.50;99.90;;;;;;5016004;28;20476;-64
2021/09/30 09:08:36;;;;;;;4.33;1.87;;;15.50;99.90;;;;;;5015644;28;20471;-64
2021/09/30 09:11:06;;;;;;;2.90;2.00;;;15.50;99.90;;;;;;5015936;28;20480;-64
2021/09/30 09:13:33;;;;;;;3.20;2.30;;;15.50;99.90;;;;;;5015309;28;20463;-63
2021/09/30 09:16:02;;;;;;;4.93;2.23;;;15.60;99.90;;;;;;5016038;28;20468;-64
2021/09/30 09:18:31;;;;;;;2.77;1.73;;;15.60;99.90;;;;;;5015235;28;20469;-64
2021/09/30 09:21:06;;;;;;;3.60;2.80;;;15.60;99.90;;;;;;5015722;28;20493;-64
2021/09/30 09:23:35;;;;;;;6.37;2.10;;;15.70;99.90;;;;;;5015459;28;20452;-64
2021/09/30 09:26:12;;;;;;;3.53;2.03;;;15.70;99.90;;;;;;5015596;28;20465;-64
2021/09/30 09:29:01;;;;;;;2.57;1.80;;;15.70;99.90;;;;;;5015167;28;20467;-64
2021/09/30 09:31:32;;;;;;;3.50;2.40;;;15.70;99.90;;;;;;5015158;28;20492;-64
2021/09/30 09:34:15;;;;;;;2.17;1.97;;;15.70;99.90;;;;;;5015574;28;20471;-64
2021/09/30 09:36:43;;;;;;;4.87;1.70;;;15.70;99.90;;;;;;5015366;28;21178;-64
2021/09/30 09:39:10;;;;;;;1.90;1.80;;;15.70;99.90;;;;;;5015454;28;21091;-64
2021/09/30 09:41:37;;;;;;;2.60;1.90;;;15.60;99.90;;;;;;5014894;28;20475;-64
2021/09/30 09:44:06;;;;;;;3.07;1.67;;;15.50;99.90;;;;;;5015193;28;20465;-64
2021/09/30 09:46:35;;;;;;;6.60;2.13;;;15.40;99.90;;;;;;5015073;28;20465;-64
2021/09/30 09:49:04;;;;;;;2.13;1.63;;;15.30;99.90;;;;;;5015168;28;21008;-64
2021/09/30 09:51:36;;;;;;;6.37;2.47;;;15.30;99.90;;;;;;5014823;28;20892;-64
2021/09/30 09:54:08;;;;;;;3.50;2.43;;;15.30;99.90;;;;;;5015033;28;20475;-64
2021/09/30 09:56:35;;;;;;;3.30;1.70;;;15.30;99.90;;;;;;5014759;28;20472;-64
2021/09/30 09:59:02;;;;;;;3.40;2.00;;;15.30;99.90;;;;;;5014749;28;20477;-64
2021/09/30 10:01:39;;;;;;;4.33;2.13;;;15.40;99.90;;;;;;5014666;28;20495;-64
2021/09/30 10:04:07;;;;;;;3.53;1.57;;;15.40;99.90;;;;;;5014858;28;20480;-64
2021/09/30 10:06:35;;;;;;;2.63;1.90;;;15.40;99.90;;;;;;5014353;28;20834;-63
2021/09/30 10:09:04;;;;;;;1.77;1.43;;;15.50;99.90;;;;;;5014926;28;20818;-64
2021/09/30 10:11:31;;;;;;;6.80;1.77;;;15.50;99.90;;;;;;5014405;28;20483;-64
2021/09/30 10:14:00;;;;;;;2.57;2.07;;;15.60;99.90;;;;;;5014577;28;20468;-64
2021/09/30 10:16:27;;;;;;;2.10;1.70;;;15.70;99.90;;;;;;5014120;28;20472;-64
2021/09/30 10:18:56;;;;;;;3.20;1.90;;;15.80;99.90;;;;;;5014493;28;20516;-64
2021/09/30 10:21:23;;;;;;;2.13;1.50;;;15.90;99.90;;;;;;5014275;28;20468;-64
2021/09/30 10:23:53;;;;;;;3.57;2.00;;;16.00;99.90;;;;;;5014512;28;20476;-64
2021/09/30 10:26:29;;;;;;;2.17;1.33;;;16.10;99.90;;;;;;5014467;28;20469;-64
2021/09/30 10:28:56;;;;;;;5.50;2.60;;;16.20;99.90;;;;;;5014781;28;20964;-64
2021/09/30 10:31:27;;;;;;;2.53;1.90;;;16.30;99.90;;;;;;5014064;28;20471;-64
2021/09/30 10:33:55;;;;;;;2.63;1.80;;;16.40;99.90;;;;;;5014584;28;20465;-64
2021/09/30 10:36:37;;;;;;;3.03;2.40;;;16.50;99.90;;;;;;5013831;28;20470;-64
2021/09/30 10:39:25;;;;;;;5.27;2.37;;;16.60;99.90;;;;;;5013755;28;20475;-64
2021/09/30 10:41:56;;;;;;;2.10;1.60;;;16.70;99.90;;;;;;5014030;28;20473;-64
2021/09/30 10:44:25;;;;;;;2.63;1.57;;;16.80;99.90;;;;;;5013740;28;20461;-64
2021/09/30 10:46:55;;;;;;;2.40;2.07;;;16.90;99.60;;;;;;5014121;28;20468;-64
2021/09/30 10:49:31;;;;;;;5.20;2.27;;;17.00;99.10;;;;;;5013514;28;20465;-64
2021/09/30 10:52:27;;;;;;;2.23;1.90;;;17.20;98.30;;;;;;5014144;28;20468;-64
2021/09/30 10:55:02;;;;;;;2.27;1.50;;;17.20;97.70;;;;;;5013916;28;20479;-64
2021/09/30 10:57:42;;;;;;;5.30;2.07;;;17.30;98.10;;;;;;5013853;28;20469;-64
2021/09/30 11:00:12;;;;;;;3.83;1.60;;;17.30;98.10;;;;;;5013377;28;20471;-64
2021/09/30 11:03:12;;;;;;;3.40;1.83;;;17.40;97.90;;;;;;5013918;28;20473;-64
2021/09/30 11:05:41;;;;;;;3.47;2.23;;;17.50;97.30;;;;;;5013086;28;20789;-64
2021/09/30 11:08:23;;;;;;;2.77;1.80;;;17.50;97.10;;;;;;5014203;28;20500;-64
2021/09/30 11:11:10;;;;;;;3.03;1.60;;;17.50;97.10;;;;;;5013608;28;20471;-64
2021/09/30 11:13:41;;;;;;;2.53;1.30;;;17.60;97.10;;;;;;5013399;28;20961;-64
2021/09/30 11:16:10;;;;;;;2.60;1.47;;;17.70;96.50;;;;;;5013749;28;20465;-64
2021/09/30 11:18:50;;;;;;;4.00;2.00;;;17.80;96.70;;;;;;5013141;28;20477;-64
2021/09/30 11:21:45;;;;;;;4.10;2.27;;;17.80;96.00;;;;;;5013679;28;20959;-64
2021/09/30 11:24:31;;;;;;;3.60;1.70;;;17.90;96.10;;;;;;5013339;28;20465;-64
2021/09/30 11:27:16;;;;;;;4.57;1.93;;;17.90;95.50;;;;;;5012956;28;20461;-64
2021/09/30 11:29:44;;;;;;;3.87;1.77;;;17.90;95.40;;;;;;5013925;28;20777;-64
2021/09/30 11:32:24;;;;;;;1.77;1.50;;;17.90;95.50;;;;;;5013169;28;20479;-64
2021/09/30 11:34:52;;;;;;;2.07;1.70;;;17.90;95.70;;;;;;5013135;28;20563;-64
2021/09/30 11:37:24;;;;;;;3.60;2.10;;;17.90;95.90;;;;;;5013139;28;20460;-64
2021/09/30 11:39:54;;;;;;;7.33;2.20;;;17.90;96.00;;;;;;5012678;28;20477;-64
2021/09/30 11:42:23;;;;;;;5.67;2.30;;;17.90;96.10;;;;;;5013252;28;20465;-64
2021/09/30 11:45:02;;;;;;;4.93;1.60;;;17.80;95.90;;;;;;5012747;28;20465;-64
2021/09/30 11:47:31;;;;;;;4.57;2.00;;;17.70;96.00;;;;;;5013159;28;20465;-64
2021/09/30 11:50:01;;;;;;;7.13;1.70;;;17.60;96.10;;;;;;5012650;28;20476;-64
2021/09/30 11:52:28;;;;;;;4.50;1.63;;;17.60;96.20;;;;;;5013330;28;20557;-64
2021/09/30 11:54:55;;;;;;;5.80;3.33;;;17.60;96.50;;;;;;5010690;28;20982;-64
2021/09/30 11:57:25;;;;;;;8.70;6.40;;;17.60;96.50;;;;;;5012839;28;20472;-64
2021/09/30 11:59:52;;;;;;;4.60;2.20;;;17.60;96.50;;;;;;5012377;28;20472;-64
2021/09/30 12:02:22;;;;;;;3.80;1.90;;;17.60;96.50;;;;;;5012961;28;20473;-64
2021/09/30 12:04:50;;;;;;;4.23;1.97;;;17.60;96.50;;;;;;5012799;28;20468;-64
2021/09/30 12:07:19;;;;;;;2.03;1.57;;;17.50;96.70;;;;;;5012839;28;20539;-64
2021/09/30 12:09:47;;;;;;;3.43;2.27;;;17.50;96.70;;;;;;5012832;28;20465;-64
2021/09/30 12:12:16;;;;;;;4.97;1.90;;;17.50;96.70;;;;;;5012260;28;20478;-64
2021/09/30 12:14:46;;;;;;;4.80;1.50;;;17.50;96.80;;;;;;5012822;28;20472;-64
2021/09/30 12:17:16;;;;;;;10.63;2.33;;;17.40;96.80;;;;;;5015751;28;20465;-64
2021/09/30 12:19:46;;;;;;;2.70;1.53;;;17.50;96.90;;;;;;5016544;28;20475;-64
2021/09/30 12:22:16;;;;;;;3.93;1.93;;;17.60;96.80;;;;;;5016255;28;20799;-64
2021/09/30 12:24:48;;;;;;;7.57;2.60;;;17.60;97.00;;;;;;5016567;28;20473;-64
2021/09/30 12:27:19;;;;;;;3.30;1.67;;;17.60;96.40;;;;;;5016241;28;20461;-64
2021/09/30 12:29:48;;;;;;;4.50;2.90;;;17.50;96.50;;;;;;5016519;28;21131;-64
2021/09/30 12:32:19;;;;;;;4.43;3.90;;;17.60;96.70;;;;;;5016424;28;20469;-63
2021/09/30 12:34:56;;;;;;;9.47;5.87;;;17.60;96.60;;;;;;5016567;28;20500;-64
2021/09/30 12:37:27;;;;;;;8.13;4.70;;;17.60;96.30;;;;;;5015565;28;20492;-64
2021/09/30 12:40:00;;;;;;;3.93;2.40;;;17.70;95.80;;;;;;5016557;28;20484;-64
2021/09/30 12:42:28;;;;;;;3.03;2.40;;;17.70;95.70;;;;;;5016180;28;20457;-64
2021/09/30 12:44:56;;;;;;;3.67;1.30;;;17.80;95.80;;;;;;5016398;28;21114;-63
2021/09/30 12:47:40;;;;;;;3.40;1.83;;;17.80;95.30;;;;;;5015859;28;20461;-63
2021/09/30 12:50:10;;;;;;;2.83;2.00;;;17.90;95.50;;;;;;5015995;28;20528;-64
2021/09/30 12:52:39;;;;;;;4.07;2.03;;;18.00;95.20;;;;;;5016437;28;20468;-64
2021/09/30 12:55:26;;;;;;;4.40;1.83;;;18.00;94.90;;;;;;5015744;28;20809;-64
2021/09/30 12:57:54;;;;;;;3.27;2.00;;;18.00;94.70;;;;;;5016097;28;20477;-64
2021/09/30 13:00:22;;;;;;;5.17;3.80;;;18.10;94.80;;;;;;5015411;28;20473;-64
2021/09/30 13:02:55;;;;;;;5.27;3.50;;;18.10;94.90;;;;;;5016150;28;20473;-64
2021/09/30 13:05:24;;;;;;;6.70;2.87;;;18.20;94.90;;;;;;5015530;28;20465;-63
2021/09/30 13:07:55;;;;;;;4.87;2.90;;;18.20;94.30;;;;;;5015847;28;20476;-63
2021/09/30 13:10:30;;;;;;;3.17;1.83;;;18.20;94.10;;;;;;5015616;28;20507;-63
2021/09/30 13:13:06;;;;;;;5.80;2.63;;;18.20;93.10;;;;;;5015868;28;20996;-64
2021/09/30 13:15:37;;;;;;;4.90;2.00;;;18.20;93.30;;;;;;5015500;28;20461;-63
2021/09/30 13:18:06;;;;;;;6.50;1.90;;;18.20;93.30;;;;;;5014841;28;20469;-63
2021/09/30 13:20:35;;;;;;;6.30;4.00;;;18.20;92.50;;;;;;5014101;28;21224;-64
2021/09/30 13:23:02;;;;;;;4.40;2.30;;;18.20;92.00;;;;;;5015683;28;20469;-63
2021/09/30 13:25:29;;;;;;;8.53;5.10;;;18.20;92.00;;;;;;5015149;28;20457;-63
2021/09/30 13:27:56;;;;;;;5.97;3.00;;;18.20;92.50;;;;;;5014813;28;20475;-64
2021/09/30 13:30:25;;;;;;;4.13;2.07;;;18.20;92.70;;;;;;5014941;28;20548;-64
2021/09/30 13:32:56;;;;;;;5.00;2.60;;;18.10;92.60;;;;;;5015524;28;20803;-64
2021/09/30 13:35:24;;;;;;;4.50;1.83;;;18.10;92.60;;;;;;5015290;28;20479;-64
2021/09/30 13:37:54;;;;;;;3.70;2.57;;;18.10;92.70;;;;;;5015563;28;20469;-64
2021/09/30 13:40:21;;;;;;;7.00;6.30;;;18.10;92.80;;;;;;5014408;28;20469;-64
2021/09/30 13:42:48;;;;;;;4.20;3.23;;;18.10;92.60;;;;;;5015032;28;20981;-64
2021/09/30 13:45:17;;;;;;;9.07;6.57;;;18.10;92.80;;;;;;5014732;28;20484;-64
2021/09/30 13:47:44;;;;;;;7.93;5.47;;;18.10;92.50;;;;;;5015206;28;20473;-64
2021/09/30 13:50:13;;;;;;;14.90;11.73;;;18.10;92.10;;;;;;5014808;28;20496;-64
2021/09/30 13:52:41;;;;;;;10.50;5.90;;;18.20;92.30;;;;;;5015283;28;20465;-64
2021/09/30 13:55:11;;;;;;;5.27;4.50;;;18.20;92.10;;;;;;5015194;28;20803;-64
2021/09/30 13:57:38;;;;;;;5.80;4.67;;;18.20;92.70;;;;;;5014980;28;20453;-64
2021/09/30 14:00:08;;;;;;;4.10;2.60;;;18.20;92.30;;;;;;5014588;28;20479;-64
2021/09/30 14:02:35;;;;;;;4.40;3.00;;;18.20;92.20;;;;;;5014552;28;20787;-64
2021/09/30 14:05:02;;;;;;;23.97;18.33;;;18.20;92.30;;;;;;5014763;28;20465;-64
2021/09/30 14:07:29;;;;;;;4.47;2.50;;;18.20;92.40;;;;;;5014570;28;21109;-64
2021/09/30 14:09:58;;;;;;;4.50;2.67;;;18.20;92.40;;;;;;5014793;28;20477;-64
2021/09/30 14:12:26;;;;;;;3.53;2.77;;;18.20;92.60;;;;;;5014488;28;20469;-64
2021/09/30 14:14:53;;;;;;;7.27;4.60;;;18.20;92.50;;;;;;5014657;28;20457;-64
2021/09/30 14:17:20;;;;;;;7.00;4.10;;;18.10;92.10;;;;;;5014215;28;20483;-64
2021/09/30 14:19:47;;;;;;;5.97;3.80;;;18.10;91.30;;;;;;5014542;28;20982;-64
2021/09/30 14:22:14;;;;;;;8.57;5.10;;;18.10;91.10;;;;;;5014470;28;20475;-64
2021/09/30 14:24:41;;;;;;;9.07;5.27;;;18.10;91.30;;;;;;5014078;28;20456;-64
2021/09/30 14:27:08;;;;;;;7.80;6.07;;;18.10;91.50;;;;;;5014622;28;20483;-64
2021/09/30 14:29:41;;;;;;;8.00;7.20;;;18.10;91.50;;;;;;5013857;28;20484;-64
2021/09/30 14:32:09;;;;;;;11.83;10.60;;;18.10;91.20;;;;;;5014562;28;20476;-64
2021/09/30 14:34:36;;;;;;;7.90;6.40;;;18.10;91.30;;;;;;5014174;28;20473;-64
2021/09/30 14:37:03;;;;;;;3.80;3.50;;;18.10;91.30;;;;;;5014415;28;20472;-64
2021/09/30 14:39:30;;;;;;;4.53;2.00;;;18.10;91.40;;;;;;5012662;28;20473;-64
2021/09/30 14:41:56;;;;;;;8.43;6.30;;;18.00;90.60;;;;;;5014100;28;20544;-64
2021/09/30 14:44:24;;;;;;;4.10;1.33;;;17.90;90.60;;;;;;5013938;28;20504;-64
2021/09/30 14:46:54;;;;;;;10.93;6.40;;;17.90;90.30;;;;;;5014365;28;20469;-64
2021/09/30 14:49:21;;;;;;;7.67;4.03;;;17.80;90.60;;;;;;5013832;28;20481;-64
2021/09/30 14:51:48;;;;;;;4.10;3.70;;;17.80;90.60;;;;;;5014080;28;20467;-64
2021/09/30 14:54:15;;;;;;;4.13;3.27;;;17.90;90.80;;;;;;5013893;28;20552;-64
2021/09/30 14:56:42;;;;;;;3.40;2.37;;;17.90;90.90;;;;;;5013587;28;21051;-64
2021/09/30 14:59:09;;;;;;;5.33;4.63;;;17.90;90.90;;;;;;5013709;28;20488;-63
2021/09/30 15:01:35;;;;;;;6.90;4.60;;;17.90;91.00;;;;;;5013697;28;20822;-64
2021/09/30 15:04:06;;;;;;;8.50;6.77;;;17.90;91.00;;;;;;5014078;28;20467;-64
2021/09/30 15:06:34;;;;;;;12.97;9.73;;;17.90;91.20;;;;;;5013452;28;20480;-64
2021/09/30 15:09:02;;;;;;;8.80;4.33;;;17.80;91.00;;;;;;5013687;28;20487;-64
2021/09/30 15:11:29;;;;;;;5.33;2.70;;;17.70;90.70;;;;;;5013264;28;20975;-63
2021/09/30 15:13:56;;;;;;;2.90;1.67;;;17.70;90.70;;;;;;5013700;28;20858;-63
2021/09/30 15:16:25;;;;;;;3.70;2.97;;;17.50;90.80;;;;;;5013345;28;20495;-62
2021/09/30 15:18:54;;;;;;;4.80;2.53;;;17.50;91.00;;;;;;5013875;28;20540;-63
2021/09/30 15:21:23;;;;;;;5.33;3.03;;;17.50;91.00;;;;;;5013277;28;21041;-62
2021/09/30 15:23:51;;;;;;;11.80;8.60;;;17.50;91.20;;;;;;5013499;28;20488;-63
2021/09/30 15:26:18;;;;;;;9.50;7.53;;;17.40;91.30;;;;;;5013537;28;20572;-63
2021/09/30 15:28:46;;;;;;;3.87;3.53;;;17.40;91.50;;;;;;5012940;28;20461;-63
2021/09/30 15:31:13;;;;;;;4.77;2.53;;;17.40;91.50;;;;;;5013293;28;20469;-63